01/18 06:00 更新

弱い雨が降っている
弱い雪が降っている
2,000ftに雲が少し
3,000ftに雲が散在
5,000ftに雲が多い

地上風: 350°7kt

上空風(熊谷ウインドプロファイラ)
13,000ft: 230°21kt
10,000ft: 320°10kt
 7,000ft: 340°12kt
 3,000ft: 50°12kt

地上: 4℃
上空: -11.1℃

日没: 16:53

実況天気図


予想天気図


RJTJ 172100Z 35007KT 9999 -SNRA FEW020 SCT030 BKN050 04/01 Q1013 RMK 1SC020 4SC030 7SC050 A2994 10/04 R000 S000=

GPV気象予報
気象庁
日本気象協会

玉淀ダム放流量(1,000m3/sを超えた7時間後にDZ冠水)
太郎衛門橋テレメータ水位(11mでDZ冠水)

skydive.jp